Time;durP1;ratioP1;P1;durP2;ratioP2;P2;SDS_P1;SDS_P2;PMS_P1;PMS_P2;Temp;Humidity;BMP_temperature;BMP_pressure;BME280_temperature;BME280_humidity;BME280_pressure;Samples;Min_cycle;Max_cycle;Signal;HPM_P1;HPM_P2
2022/01/07 00:00:47;;;;;;;;;14.00;10.00;;;;;4.82;67.27;101523.84;4999005;28;45285;-77
2022/01/07 00:03:14;;;;;;;;;13.50;12.00;;;;;4.92;67.84;101540.97;4990158;28;45527;-78
2022/01/07 00:05:40;;;;;;;;;10.75;9.25;;;;;4.89;68.52;101525.09;4989032;28;45428;-79
2022/01/07 00:08:06;;;;;;;;;7.75;7.25;;;;;4.70;68.51;101489.06;4989928;28;45493;-77
2022/01/07 00:10:31;;;;;;;;;10.75;10.00;;;;;4.66;69.05;101487.97;4998842;28;45214;-76
2022/01/07 00:12:57;;;;;;;;;14.25;11.25;;;;;4.72;69.85;101504.03;4992171;28;46654;-76
2022/01/07 00:15:22;;;;;;;;;16.00;11.00;;;;;4.47;69.72;101466.75;4998637;28;45273;-75
2022/01/07 00:17:49;;;;;;;;;11.50;10.25;;;;;4.53;69.36;101482.81;4991045;28;45181;-76
2022/01/07 00:20:16;;;;;;;;;16.00;12.25;;;;;4.41;69.71;101459.44;4997378;28;47461;-75
2022/01/07 00:22:43;;;;;;;;;13.50;10.50;;;;;4.24;71.65;101441.81;4992187;28;46659;-76
2022/01/07 00:25:10;;;;;;;;;11.25;10.25;;;;;4.30;69.61;101455.28;4997778;28;45435;-76
2022/01/07 00:27:36;;;;;;;;;6.25;5.00;;;;;4.43;71.29;101481.38;4993730;28;45335;-76
2022/01/07 00:30:03;;;;;;;;;9.75;9.25;;;;;4.32;72.33;101460.63;5001804;28;45541;-76
2022/01/07 00:32:28;;;;;;;;;12.50;10.50;;;;;4.32;73.42;101468.47;4999781;28;46329;-77
2022/01/07 00:34:54;;;;;;;;;12.25;10.25;;;;;4.22;71.61;101453.91;5030692;28;45504;-77
2022/01/07 00:37:19;;;;;;;;;12.25;10.00;;;;;4.26;71.33;101456.81;4997397;28;45392;-77
2022/01/07 00:39:45;;;;;;;;;18.25;11.50;;;;;4.29;71.15;101445.63;5014678;28;47103;-77
2022/01/07 00:42:11;;;;;;;;;10.75;9.00;;;;;4.28;71.49;101453.38;4997320;28;48231;-77
2022/01/07 00:44:37;;;;;;;;;16.25;9.00;;;;;4.33;71.06;101468.53;5000450;28;45300;-77
2022/01/07 00:47:05;;;;;;;;;14.50;9.75;;;;;4.39;71.81;101473.25;4999681;28;45231;-78
2022/01/07 00:49:31;;;;;;;;;10.75;9.50;;;;;4.13;71.59;101427.19;5000302;28;46317;-78
2022/01/07 00:51:59;;;;;;;;;11.50;8.75;;;;;4.18;70.97;101454.56;4998335;28;47133;-78
2022/01/07 00:54:24;;;;;;;;;10.75;10.50;;;;;4.28;71.57;101458.59;5009023;28;45516;-78
2022/01/07 00:56:49;;;;;;;;;11.50;7.50;;;;;4.10;73.13;101422.69;5014838;28;45491;-78
2022/01/07 00:59:15;;;;;;;;;10.50;9.25;;;;;4.14;73.04;101418.53;4998179;28;45409;-78
2022/01/07 01:01:40;;;;;;;;;13.75;11.50;;;;;4.32;72.30;101453.66;4999758;28;45321;-77
2022/01/07 01:04:06;;;;;;;;;17.00;9.75;;;;;4.29;71.91;101455.19;4997478;28;45266;-78
2022/01/07 01:06:31;;;;;;;;;13.75;10.00;;;;;4.30;72.45;101451.75;4999591;28;45317;-78
2022/01/07 01:08:56;;;;;;;;;15.75;10.50;;;;;4.28;72.80;101448.13;4997091;28;45381;-78
2022/01/07 01:11:22;;;;;;;;;10.00;10.00;;;;;4.34;73.90;101446.81;4998247;28;47103;-77
2022/01/07 01:13:49;;;;;;;;;14.50;11.00;;;;;4.18;72.30;101418.81;4996946;28;45385;-78
2022/01/07 01:16:14;;;;;;;;;15.75;9.75;;;;;4.31;73.31;101453.56;5000538;28;45432;-78
2022/01/07 01:18:39;;;;;;;;;9.25;9.00;;;;;4.34;71.33;101446.81;4995721;28;45212;-78
2022/01/07 01:21:05;;;;;;;;;13.50;11.00;;;;;4.35;72.87;101447.72;5001251;28;45504;-78
2022/01/07 01:23:30;;;;;;;;;16.25;11.00;;;;;4.43;73.33;101456.94;4994677;28;45234;-78
2022/01/07 01:25:56;;;;;;;;;13.00;10.50;;;;;4.35;72.43;101438.13;5001498;28;45158;-78
2022/01/07 01:28:21;;;;;;;;;10.25;9.00;;;;;4.29;72.00;101429.94;4994726;28;45305;-78
2022/01/07 01:30:47;;;;;;;;;12.50;10.25;;;;;4.27;72.77;101421.06;5000872;28;45303;-78
2022/01/07 01:33:12;;;;;;;;;9.25;9.25;;;;;4.47;71.69;101465.03;4995263;28;45314;-77
2022/01/07 01:35:39;;;;;;;;;9.00;9.00;;;;;4.27;72.41;101418.47;4996899;28;45313;-77
2022/01/07 01:38:04;;;;;;;;;14.00;11.00;;;;;4.24;72.30;101410.44;4995979;28;45306;-78
2022/01/07 01:40:30;;;;;;;;;14.75;11.25;;;;;4.37;72.88;101433.91;4998644;28;45294;-78
2022/01/07 01:42:57;;;;;;;;;10.00;9.00;;;;;4.40;72.74;101439.31;4997917;28;44792;-78
2022/01/07 01:45:24;;;;;;;;;17.50;13.00;;;;;4.54;73.01;101462.75;5000980;28;45367;-77
2022/01/07 01:47:53;;;;;;;;;9.75;9.00;;;;;4.33;71.97;101408.34;4998772;28;45508;-78
2022/01/07 01:50:19;;;;;;;;;15.00;13.00;;;;;4.57;71.96;101458.63;5000609;28;48564;-78
2022/01/07 01:52:48;;;;;;;;;16.00;13.75;;;;;4.56;72.28;101446.34;4995552;28;45456;-78
2022/01/07 01:55:16;;;;;;;;;13.75;10.25;;;;;4.58;72.19;101449.97;4999005;28;45346;-78
2022/01/07 01:57:41;;;;;;;;;16.75;12.25;;;;;4.54;72.23;101444.44;4995442;28;46322;-78
2022/01/07 02:00:09;;;;;;;;;14.00;10.00;;;;;4.59;72.74;101435.16;5012836;28;47399;-78
2022/01/07 02:02:34;;;;;;;;;13.50;12.25;;;;;4.60;73.17;101436.97;4998223;28;45490;-78
2022/01/07 02:04:59;;;;;;;;;11.50;10.00;;;;;4.44;73.37;101401.13;5000682;28;45265;-78
2022/01/07 02:07:27;;;;;;;;;14.25;11.75;;;;;4.47;73.50;101411.78;4994668;28;45444;-78
2022/01/07 02:09:53;;;;;;;;;8.75;7.00;;;;;4.67;72.21;101436.50;5000539;28;45487;-78
2022/01/07 02:12:18;;;;;;;;;11.50;11.25;;;;;4.61;72.66;101420.44;4994236;28;45352;-78
2022/01/07 02:14:52;;;;;;;;;11.25;9.50;;;;;4.57;72.33;101408.00;5016364;28;45325;-78
2022/01/07 02:17:18;;;;;;;;;19.50;12.25;;;;;4.48;72.72;101382.16;4994010;28;45504;-78
2022/01/07 02:19:44;;;;;;;;;11.50;11.00;;;;;4.52;73.49;101388.50;5000177;28;45551;-78
2022/01/07 02:22:12;;;;;;;;;17.75;11.75;;;;;4.75;72.22;101416.00;4994364;28;45378;-78
2022/01/07 02:24:37;;;;;;;;;9.25;7.50;;;;;4.68;72.81;101399.06;5013964;28;45259;-78
2022/01/07 02:27:03;;;;;;;;;11.75;11.75;;;;;4.67;72.95;101400.75;4993961;28;46026;-78
2022/01/07 02:29:29;;;;;;;;;13.50;11.50;;;;;4.69;73.59;101396.50;4997229;28;46981;-78
2022/01/07 02:31:54;;;;;;;;;12.25;10.00;;;;;4.64;74.58;101391.81;4996025;28;45368;-79
2022/01/07 02:34:20;;;;;;;;;10.00;10.00;;;;;4.63;73.18;101384.78;4993001;28;45394;-80
2022/01/07 02:36:45;;;;;;;;;15.00;10.00;;;;;4.77;72.56;101403.91;4996254;28;45444;-79
2022/01/07 02:39:11;;;;;;;;;11.25;11.25;;;;;4.72;73.45;101390.53;4995414;28;47229;-78
2022/01/07 02:41:36;;;;;;;;;14.00;9.75;;;;;4.78;73.57;101390.88;4998316;28;45313;-79
2022/01/07 02:44:02;;;;;;;;;7.75;7.75;;;;;4.68;73.18;101370.25;5013701;28;45476;-81
2022/01/07 02:46:27;;;;;;;;;14.00;8.50;;;;;4.69;73.42;101369.41;4997922;28;45273;-80
2022/01/07 02:48:53;;;;;;;;;9.00;6.50;;;;;4.61;74.20;101358.50;4991159;28;45658;-79
2022/01/07 02:51:18;;;;;;;;;11.50;10.75;;;;;4.59;74.12;101357.50;4997591;28;45415;-78
2022/01/07 02:53:43;;;;;;;;;12.00;10.00;;;;;4.71;73.20;101376.56;4991694;28;45306;-79
2022/01/07 02:56:11;;;;;;;;;6.50;6.00;;;;;4.63;73.29;101355.97;5000122;28;45354;-79
2022/01/07 02:58:36;;;;;;;;;9.25;7.50;;;;;4.81;74.78;101388.44;4994486;28;45670;-79
2022/01/07 03:01:02;;;;;;;;;11.25;9.50;;;;;4.77;73.51;101381.22;4998380;28;45248;-79
2022/01/07 03:03:27;;;;;;;;;10.00;7.00;;;;;4.78;73.15;101377.78;4993585;28;45235;-79
2022/01/07 03:05:52;;;;;;;;;9.50;9.50;;;;;4.76;72.81;101381.13;4999992;28;45463;-79
2022/01/07 03:08:18;;;;;;;;;6.75;6.75;;;;;4.77;72.95;101362.00;4992412;28;48071;-79
2022/01/07 03:10:43;;;;;;;;;7.00;7.00;;;;;4.76;73.74;101366.34;5000100;28;45211;-79
2022/01/07 03:13:09;;;;;;;;;11.00;8.75;;;;;4.80;74.15;101381.41;4993198;28;45412;-79
2022/01/07 03:15:37;;;;;;;;;11.00;9.50;;;;;4.80;73.67;101376.16;4998110;28;46032;-79
2022/01/07 03:18:04;;;;;;;;;6.25;6.25;;;;;4.76;73.43;101376.81;4992904;28;45512;-79
2022/01/07 03:20:30;;;;;;;;;11.50;8.50;;;;;4.65;73.54;101349.09;4998186;28;45591;-79
2022/01/07 03:22:56;;;;;;;;;12.25;11.00;;;;;4.75;73.49;101367.16;4991966;28;45402;-79
2022/01/07 03:25:22;;;;;;;;;8.50;6.25;;;;;4.79;73.14;101374.38;4998396;28;47134;-79
2022/01/07 03:27:48;;;;;;;;;10.75;7.75;;;;;4.58;72.80;101319.06;4994023;28;45433;-79
2022/01/07 03:30:17;;;;;;;;;7.25;6.25;;;;;4.89;73.85;101378.41;4996159;28;45182;-79
2022/01/07 03:32:43;;;;;;;;;7.25;5.75;;;;;4.77;73.56;101348.91;4991488;28;45429;-79
2022/01/07 03:35:11;;;;;;;;;10.75;7.00;;;;;4.82;73.12;101360.56;4992518;28;45483;-78
2022/01/07 03:37:37;;;;;;;;;8.25;7.00;;;;;4.87;73.73;101375.72;4994766;28;48164;-78
2022/01/07 03:40:04;;;;;;;;;9.25;7.25;;;;;4.84;74.16;101354.56;4997590;28;45334;-78
2022/01/07 03:42:29;;;;;;;;;7.00;7.00;;;;;4.76;72.53;101341.84;4996875;28;45406;-77
2022/01/07 03:44:54;;;;;;;;;7.00;7.00;;;;;4.80;72.58;101336.00;4997133;28;45886;-78
2022/01/07 03:47:20;;;;;;;;;12.75;6.25;;;;;4.78;72.75;101332.38;4996073;28;46710;-78
2022/01/07 03:49:45;;;;;;;;;8.50;6.50;;;;;4.91;72.35;101355.81;4992060;28;45249;-78
2022/01/07 03:52:10;;;;;;;;;7.25;7.25;;;;;4.83;72.94;101347.53;4996945;28;46496;-78
2022/01/07 03:54:36;;;;;;;;;9.75;7.25;;;;;4.86;73.01;101345.06;4992145;28;45262;-78
2022/01/07 03:57:01;;;;;;;;;6.75;5.75;;;;;4.96;73.04;101364.84;4995257;28;45570;-78
2022/01/07 03:59:27;;;;;;;;;3.75;3.50;;;;;4.82;72.51;101327.41;4996137;28;45249;-78
2022/01/07 04:01:53;;;;;;;;;6.75;6.00;;;;;4.51;73.16;101271.50;5012594;28;45306;-78
2022/01/07 04:04:18;;;;;;;;;6.00;6.00;;;;;4.92;73.36;101334.94;4990228;28;46286;-78
2022/01/07 04:06:44;;;;;;;;;11.00;6.50;;;;;4.87;72.66;101312.84;5014266;28;47440;-78
2022/01/07 04:09:09;;;;;;;;;9.50;7.50;;;;;5.03;73.01;101339.88;4998312;28;45429;-77
2022/01/07 04:11:34;;;;;;;;;8.50;6.25;;;;;4.91;72.73;101313.91;5015820;28;45926;-78
2022/01/07 04:14:00;;;;;;;;;3.00;3.00;;;;;5.03;72.66;101329.41;4997924;28;45263;-77
2022/01/07 04:16:25;;;;;;;;;7.25;6.00;;;;;4.87;72.66;101307.63;4999948;28;45476;-78
2022/01/07 04:18:50;;;;;;;;;10.75;7.00;;;;;4.99;73.51;101332.69;4997712;28;45207;-78
2022/01/07 04:21:16;;;;;;;;;7.50;6.25;;;;;4.87;72.87;101312.84;4999896;28;45724;-78
2022/01/07 04:23:41;;;;;;;;;13.25;7.75;;;;;4.88;73.31;101314.63;4993593;28;45439;-78
2022/01/07 04:26:06;;;;;;;;;2.00;2.00;;;;;5.01;73.11;101323.16;5000849;28;45384;-78
2022/01/07 04:28:32;;;;;;;;;5.75;5.00;;;;;4.91;72.46;101313.91;4994962;28;45262;-78
2022/01/07 04:30:57;;;;;;;;;7.00;5.75;;;;;5.00;72.68;101326.63;4999245;28;45577;-77
2022/01/07 04:33:26;;;;;;;;;10.50;7.75;;;;;5.02;72.32;101323.25;4997284;28;45366;-77
2022/01/07 04:35:54;;;;;;;;;6.25;5.50;;;;;4.98;73.10;101309.91;4998971;28;47120;-78
2022/01/07 04:38:20;;;;;;;;;7.00;7.00;;;;;5.10;72.31;101328.94;4993793;28;45371;-78
2022/01/07 04:40:46;;;;;;;;;4.50;4.50;;;;;5.12;73.27;101335.13;5000638;28;45237;-78
2022/01/07 04:43:11;;;;;;;;;5.75;5.75;;;;;5.16;72.89;101351.13;4999253;28;45693;-78
2022/01/07 04:45:37;;;;;;;;;10.75;5.75;;;;;5.10;72.69;101337.69;5000905;28;45581;-78
2022/01/07 04:48:03;;;;;;;;;7.00;4.50;;;;;4.92;73.29;101310.47;4992152;28;45255;-77
2022/01/07 04:50:29;;;;;;;;;6.75;5.50;;;;;5.19;73.05;101344.25;5000428;28;45417;-77
2022/01/07 04:52:55;;;;;;;;;8.25;6.00;;;;;5.01;72.89;101312.69;4994652;28;45539;-77
2022/01/07 04:55:26;;;;;;;;;5.00;5.00;;;;;5.18;72.63;101327.59;5000338;28;46665;-78
2022/01/07 04:57:53;;;;;;;;;6.50;5.50;;;;;5.21;72.38;101327.78;4996155;28;45353;-77
2022/01/07 05:00:21;;;;;;;;;6.75;5.75;;;;;5.26;73.50;101338.50;5001306;28;45263;-78
2022/01/07 05:02:47;;;;;;;;;5.00;5.00;;;;;5.27;73.30;101337.72;4995294;28;45652;-78
2022/01/07 05:05:13;;;;;;;;;6.50;6.00;;;;;5.13;73.00;101309.03;5001380;28;46696;-78
2022/01/07 05:07:39;;;;;;;;;3.00;3.00;;;;;5.16;72.70;101308.28;4995007;28;45473;-77
2022/01/07 05:10:07;;;;;;;;;7.25;3.50;;;;;5.31;72.50;101326.56;5001518;28;45352;-77
2022/01/07 05:12:32;;;;;;;;;3.00;3.00;;;;;5.25;72.96;101311.41;4994738;28;45669;-77
2022/01/07 05:14:58;;;;;;;;;5.50;5.50;;;;;5.15;72.55;101289.06;5016343;28;47784;-77
2022/01/07 05:17:23;;;;;;;;;7.00;5.50;;;;;5.12;73.05;101293.22;4998423;28;45476;-77
2022/01/07 05:19:48;;;;;;;;;5.25;5.00;;;;;4.89;72.66;101257.91;5000821;28;45706;-76
2022/01/07 05:22:14;;;;;;;;;3.50;3.50;;;;;5.21;72.73;101321.63;4995039;28;45483;-77
2022/01/07 05:24:39;;;;;;;;;6.00;5.75;;;;;5.13;72.73;101322.13;5000825;28;45430;-77
2022/01/07 05:27:05;;;;;;;;;6.50;5.00;;;;;4.93;73.10;101301.81;4996224;28;45542;-77
2022/01/07 05:29:34;;;;;;;;;6.00;2.50;;;;;4.92;72.64;101305.22;4996154;28;45326;-77
2022/01/07 05:32:00;;;;;;;;;3.50;3.50;;;;;5.06;72.55;101338.31;4996802;28;45318;-77
2022/01/07 05:34:26;;;;;;;;;7.00;6.00;;;;;4.83;73.10;101299.50;5000346;28;45474;-77
2022/01/07 05:36:51;;;;;;;;;4.50;4.50;;;;;5.00;72.94;101329.22;4996531;28;44902;-77
2022/01/07 05:39:16;;;;;;;;;6.00;5.00;;;;;4.83;72.62;101295.16;4999268;28;45459;-77
2022/01/07 05:41:42;;;;;;;;;5.50;4.00;;;;;4.93;73.74;101312.28;4999099;28;45275;-77
2022/01/07 05:44:07;;;;;;;;;3.50;3.50;;;;;4.72;73.16;101278.84;5007084;28;47107;-77
2022/01/07 05:46:32;;;;;;;;;5.25;4.00;;;;;4.76;72.57;101302.56;4998758;28;45450;-77
2022/01/07 05:48:58;;;;;;;;;3.50;3.50;;;;;4.82;73.14;101327.41;4993131;28;45483;-77
2022/01/07 05:51:23;;;;;;;;;3.00;3.00;;;;;4.56;72.80;101283.13;4999521;28;45156;-77
2022/01/07 05:53:49;;;;;;;;;4.50;4.50;;;;;4.74;73.15;101314.69;4995569;28;45247;-78
2022/01/07 05:56:14;;;;;;;;;3.00;3.00;;;;;4.78;73.09;101321.91;5000294;28;45298;-77
2022/01/07 05:58:39;;;;;;;;;6.50;5.00;;;;;4.71;73.69;101316.31;4998985;28;45380;-77
2022/01/07 06:01:05;;;;;;;;;5.75;2.25;;;;;4.72;72.95;101325.06;5015777;28;46206;-76
2022/01/07 06:03:32;;;;;;;;;6.00;3.50;;;;;4.73;73.50;101329.47;4992730;28;46627;-76
2022/01/07 06:05:58;;;;;;;;;7.25;5.25;;;;;4.56;73.39;101288.38;4999464;28;45394;-75
2022/01/07 06:08:23;;;;;;;;;5.00;5.00;;;;;4.58;73.51;101298.13;4993938;28;45458;-75
2022/01/07 06:10:48;;;;;;;;;5.00;3.00;;;;;4.70;73.68;101326.69;5000736;28;45485;-75
2022/01/07 06:13:14;;;;;;;;;10.00;5.00;;;;;4.65;73.18;101312.44;4998280;28;46908;-74
2022/01/07 06:15:39;;;;;;;;;4.00;4.00;;;;;4.54;73.55;101289.97;4998985;28;45314;-75
2022/01/07 06:18:05;;;;;;;;;4.00;4.00;;;;;4.75;73.73;101329.59;4993876;28;45273;-73
2022/01/07 06:20:31;;;;;;;;;3.00;3.00;;;;;4.75;73.53;101333.09;4998938;28;45888;-74
2022/01/07 06:22:56;;;;;;;;;6.50;5.00;;;;;4.70;73.02;101322.38;4993734;28;45518;-75
2022/01/07 06:25:22;;;;;;;;;7.50;5.25;;;;;4.69;73.88;101310.09;4999905;28;45167;-76
2022/01/07 06:27:47;;;;;;;;;5.00;5.00;;;;;4.89;73.31;101336.50;4994731;28;45242;-77
2022/01/07 06:30:13;;;;;;;;;6.00;6.00;;;;;4.86;73.52;101325.84;4997009;28;45258;-76
2022/01/07 06:32:38;;;;;;;;;6.00;6.00;;;;;4.85;73.65;101330.19;4994031;28;46403;-76
2022/01/07 06:35:05;;;;;;;;;6.00;6.00;;;;;4.92;73.10;101321.84;5012729;28;45813;-76
2022/01/07 06:37:30;;;;;;;;;9.00;3.50;;;;;4.86;73.98;101303.16;4996937;28;45399;-77
2022/01/07 06:39:56;;;;;;;;;6.00;3.00;;;;;4.98;73.59;101320.38;4999073;28;45309;-76
2022/01/07 06:42:22;;;;;;;;;7.25;5.00;;;;;4.82;74.22;101289.84;4997078;28;45631;-77
2022/01/07 06:44:47;;;;;;;;;3.50;2.50;;;;;4.88;73.35;101298.94;4971323;28;45374;-77
2022/01/07 06:47:13;;;;;;;;;6.00;6.00;;;;;5.02;74.34;101314.50;4996592;28;45389;-78
2022/01/07 06:49:38;;;;;;;;;4.75;3.25;;;;;4.94;74.40;101293.13;4992226;28;44910;-76
2022/01/07 06:52:05;;;;;;;;;6.00;5.00;;;;;5.01;74.87;101302.19;4994041;28;46889;-77
2022/01/07 06:54:31;;;;;;;;;5.00;5.00;;;;;5.16;74.16;101327.53;4998144;28;45403;-77
2022/01/07 06:56:57;;;;;;;;;6.00;4.00;;;;;5.14;73.80;101326.53;4996780;28;45308;-77
2022/01/07 06:59:23;;;;;;;;;11.75;10.25;;;;;5.11;74.07;101312.38;4994513;28;45405;-77
2022/01/07 07:01:48;;;;;;;;;4.50;4.50;;;;;5.14;73.91;101315.16;4997189;28;45332;-75
2022/01/07 07:04:15;;;;;;;;;6.50;5.00;;;;;5.13;74.26;101309.03;4995069;28;45365;-76
2022/01/07 07:06:42;;;;;;;;;5.25;3.00;;;;;5.11;73.49;101315.00;4997713;28;45350;-76
2022/01/07 07:09:07;;;;;;;;;6.25;5.75;;;;;5.01;73.62;101290.00;4995531;28;45574;-76
2022/01/07 07:11:34;;;;;;;;;8.50;5.00;;;;;5.29;73.62;101339.59;4997542;28;45475;-76
2022/01/07 07:13:59;;;;;;;;;8.00;3.50;;;;;5.29;73.77;101342.22;4998385;28;46071;-76
2022/01/07 07:16:26;;;;;;;;;6.00;3.50;;;;;5.18;74.64;101317.13;4998002;28;45431;-76
2022/01/07 07:18:51;;;;;;;;;5.50;5.50;;;;;5.29;73.94;101329.13;4994734;28;45615;-76
2022/01/07 07:21:17;;;;;;;;;9.00;9.00;;;;;5.35;73.73;101337.31;4998482;28;45567;-76
2022/01/07 07:23:42;;;;;;;;;7.75;5.25;;;;;5.38;74.37;101336.56;4990361;28;45931;-76
2022/01/07 07:26:07;;;;;;;;;6.00;6.00;;;;;5.43;73.60;101340.31;4998215;28;45198;-77
2022/01/07 07:28:37;;;;;;;;;7.25;6.00;;;;;5.39;75.56;101325.25;4992836;28;45504;-76
2022/01/07 07:31:06;;;;;;;;;7.75;6.00;;;;;5.22;74.53;101295.53;4998204;28;45378;-77
2022/01/07 07:33:54;;;;;;;;;4.25;2.00;;;;;5.48;73.87;101340.56;4996039;28;45361;-76
2022/01/07 07:36:31;;;;;;;;;8.50;6.75;;;;;5.54;75.74;101351.38;4987810;28;45226;-77
2022/01/07 07:39:01;;;;;;;;;9.00;6.00;;;;;5.33;74.88;101319.69;4999798;28;45515;-76
2022/01/07 07:41:27;;;;;;;;;9.75;6.50;;;;;5.39;75.40;101330.50;5001348;28;45546;-76
2022/01/07 07:43:52;;;;;;;;;8.50;6.75;;;;;5.57;75.69;101364.66;4993797;28;45387;-78
2022/01/07 07:46:19;;;;;;;;;7.25;5.75;;;;;5.49;74.74;101353.78;5000652;28;45238;-78
2022/01/07 07:48:46;;;;;;;;;7.00;5.50;;;;;5.57;75.03;101359.41;4993942;28;45441;-78
2022/01/07 07:51:12;;;;;;;;;5.00;5.00;;;;;5.59;75.40;101358.66;5002831;28;45298;-77
2022/01/07 07:53:38;;;;;;;;;5.75;5.00;;;;;5.53;76.29;101328.63;4996460;28;45356;-77
2022/01/07 07:56:04;;;;;;;;;8.25;5.00;;;;;5.50;75.39;101325.84;5002902;28;45327;-77
2022/01/07 07:58:29;;;;;;;;;7.25;5.50;;;;;5.39;75.64;101318.28;4993026;28;46231;-77
2022/01/07 08:00:56;;;;;;;;;5.50;5.50;;;;;5.59;76.07;101361.28;5017752;28;45919;-79
2022/01/07 08:03:23;;;;;;;;;4.50;4.50;;;;;5.35;76.22;101318.97;5011291;28;45377;-78
2022/01/07 08:05:49;;;;;;;;;5.25;3.50;;;;;5.57;76.49;101349.84;4994352;28;45258;-76
2022/01/07 08:08:14;;;;;;;;;5.75;3.00;;;;;5.46;75.55;101329.09;4994723;28;45934;-76
2022/01/07 08:10:46;;;;;;;;;6.25;2.25;;;;;5.53;76.07;101354.84;5002553;28;45414;-75
2022/01/07 08:18:24;;;;;;;;;3.50;3.00;;;;;5.54;75.90;101344.41;4995942;28;45324;-76
2022/01/07 08:20:53;;;;;;;;;5.00;2.25;;;;;5.65;75.75;101360.72;4996942;28;45578;-77
2022/01/07 08:23:19;;;;;;;;;5.25;2.25;;;;;5.46;76.00;101322.16;4991733;28;45472;-77
2022/01/07 08:25:45;;;;;;;;;5.50;3.50;;;;;5.64;76.37;101356.31;5012855;28;45439;-78
2022/01/07 08:28:12;;;;;;;;;5.00;3.00;;;;;5.70;77.38;101367.13;4992839;28;45965;-76
2022/01/07 08:30:58;;;;;;;;;5.75;2.75;;;;;5.52;76.12;101325.09;4997241;28;45461;-76
2022/01/07 08:36:07;;;;;;;;;2.00;2.00;;;;;5.65;75.73;101351.97;4989039;28;45382;-77
2022/01/07 08:38:32;;;;;;;;;5.00;1.00;;;;;5.63;75.65;101337.84;4998677;28;47451;-78
2022/01/07 08:40:58;;;;;;;;;4.50;2.00;;;;;5.56;75.77;101321.81;5002445;28;45774;-78
2022/01/07 08:43:24;;;;;;;;;3.00;3.00;;;;;5.54;76.37;101304.19;4991347;28;45299;-79
2022/01/07 08:45:49;;;;;;;;;5.00;2.00;;;;;5.57;75.76;101300.03;5001835;28;45289;-79
2022/01/07 08:48:15;;;;;;;;;3.00;2.00;;;;;5.67;75.95;101313.59;4991856;28;45475;-79
2022/01/07 08:50:40;;;;;;;;;4.25;1.25;;;;;5.42;75.76;101249.38;5000399;28;47532;-79
2022/01/07 08:53:05;;;;;;;;;3.25;1.00;;;;;5.56;76.25;101276.34;4991250;28;45363;-78
2022/01/07 08:55:31;;;;;;;;;4.75;1.50;;;;;5.57;76.41;101288.59;5001931;28;45309;-79
2022/01/07 08:57:57;;;;;;;;;1.00;1.00;;;;;5.55;76.47;101287.66;4993361;28;45361;-77
2022/01/07 09:00:24;;;;;;;;;1.25;1.00;;;;;5.56;76.29;101292.97;5001104;28;45441;-77
2022/01/07 09:02:49;;;;;;;;;1.50;1.50;;;;;5.55;76.04;101293.78;4990700;28;45498;-78
2022/01/07 09:05:15;;;;;;;;;1.00;1.00;;;;;5.55;75.10;101306.00;5000109;28;45405;-77
2022/01/07 09:07:40;;;;;;;;;1.00;1.00;;;;;5.59;75.34;101315.81;4995008;28;45451;-76
2022/01/07 09:10:06;;;;;;;;;2.00;1.00;;;;;5.80;76.53;101353.69;5001494;28;45317;-78
2022/01/07 09:12:31;;;;;;;;;1.50;1.00;;;;;5.79;76.17;101343.97;4993784;28;45485;-77
2022/01/07 09:14:57;;;;;;;;;1.00;1.00;;;;;5.60;74.90;101305.44;5000110;28;45239;-78
2022/01/07 09:17:22;;;;;;;;;0.00;0.00;;;;;5.72;75.56;101320.00;4994846;28;45211;-78
2022/01/07 09:19:48;;;;;;;;;1.00;1.00;;;;;5.72;75.57;101320.00;5000956;28;46430;-78
2022/01/07 09:22:14;;;;;;;;;2.00;2.00;;;;;5.95;75.20;101357.94;4994455;28;45646;-78
2022/01/07 09:24:39;;;;;;;;;1.00;1.00;;;;;5.94;75.20;101354.44;4997577;28;45277;-78
2022/01/07 09:27:05;;;;;;;;;0.00;0.00;;;;;5.89;75.91;101337.50;4997007;28;45237;-77
2022/01/07 09:29:30;;;;;;;;;1.00;1.00;;;;;5.95;75.30;101339.59;4986853;28;45502;-76
2022/01/07 09:31:56;;;;;;;;;0.00;0.00;;;;;5.84;75.37;101320.63;4991044;28;45542;-76
2022/01/07 09:34:21;;;;;;;;;1.75;0.00;;;;;5.87;75.14;101323.41;4999023;28;45389;-76
2022/01/07 09:36:47;;;;;;;;;1.00;1.00;;;;;6.01;74.79;101355.63;4995782;28;46387;-76
2022/01/07 09:39:13;;;;;;;;;1.00;0.00;;;;;6.03;75.06;101351.38;4999434;28;45314;-76
2022/01/07 09:41:39;;;;;;;;;1.00;1.00;;;;;6.09;75.06;101356.03;4997337;28;45346;-77
2022/01/07 09:44:09;;;;;;;;;1.00;0.75;;;;;6.05;74.55;101350.63;4992056;28;45337;-78
2022/01/07 09:46:35;;;;;;;;;1.00;1.00;;;;;6.01;75.25;101350.38;4997528;28;45949;-77
2022/01/07 09:49:01;;;;;;;;;2.50;1.00;;;;;5.89;75.17;101334.88;4990258;28;45366;-76
2022/01/07 09:51:27;;;;;;;;;2.50;1.00;;;;;5.77;75.61;101324.66;5014389;28;45338;-76
2022/01/07 09:53:52;;;;;;;;;1.75;1.75;;;;;6.00;75.16;101344.25;4995580;28;45330;-76
2022/01/07 09:56:19;;;;;;;;;3.00;2.00;;;;;6.14;75.49;101330.94;5000202;28;45271;-76
2022/01/07 09:58:45;;;;;;;;;1.00;1.00;;;;;6.17;73.54;101331.09;4990437;28;47310;-76
2022/01/07 10:01:13;;;;;;;;;1.00;1.00;;;;;6.09;75.23;101316.66;4998860;28;45456;-76
2022/01/07 10:03:43;;;;;;;;;2.00;2.00;;;;;6.28;74.67;101346.53;4994290;28;45285;-77
2022/01/07 10:06:18;;;;;;;;;2.50;2.50;;;;;6.37;74.48;101347.84;4999028;28;46660;-76
2022/01/07 10:08:46;;;;;;;;;1.00;1.00;;;;;6.47;74.62;101335.25;4994527;28;45326;-77
2022/01/07 10:11:18;;;;;;;;;3.25;1.00;;;;;6.54;74.93;101327.66;5000368;28;45261;-76
2022/01/07 10:13:49;;;;;;;;;2.00;1.00;;;;;6.63;75.09;101341.22;4998759;28;45384;-76
2022/01/07 10:16:20;;;;;;;;;1.75;1.75;;;;;6.77;74.13;101350.69;5000189;28;44727;-76
2022/01/07 10:18:47;;;;;;;;;3.00;1.00;;;;;6.78;73.91;101351.56;4993035;28;47605;-77
2022/01/07 10:21:14;;;;;;;;;4.00;2.00;;;;;6.83;74.33;101352.69;4999918;28;45435;-76
2022/01/07 10:23:40;;;;;;;;;2.00;2.00;;;;;6.78;73.59;101327.94;4992845;28;45403;-76
2022/01/07 10:26:13;;;;;;;;;1.00;1.00;;;;;6.95;73.89;101350.69;4998786;28;45545;-76
2022/01/07 10:28:38;;;;;;;;;3.00;1.25;;;;;6.93;73.45;101320.78;4989863;28;47453;-76
2022/01/07 10:31:06;;;;;;;;;3.00;3.00;;;;;6.80;73.32;101284.25;5012851;28;45400;-77
2022/01/07 10:33:40;;;;;;;;;3.50;3.50;;;;;7.25;72.92;101327.53;4994567;28;45413;-76
2022/01/07 10:36:08;;;;;;;;;1.00;1.00;;;;;7.41;72.93;101326.53;4997624;28;46238;-75
2022/01/07 10:38:36;;;;;;;;;2.50;1.75;;;;;7.47;72.74;101325.91;4995270;28;45664;-75
2022/01/07 10:41:02;;;;;;;;;0.75;0.75;;;;;7.43;71.54;101319.59;4999657;28;45227;-76
2022/01/07 10:43:32;;;;;;;;;2.75;2.00;;;;;7.54;72.82;101321.00;4994135;28;45451;-75
2022/01/07 10:46:07;;;;;;;;;0.00;0.00;;;;;7.61;72.22;101322.16;4999700;28;45430;-76
2022/01/07 10:48:44;;;;;;;;;0.00;0.00;;;;;7.29;71.85;101276.00;4990100;28;46183;-77
2022/01/07 10:51:12;;;;;;;;;0.50;0.50;;;;;7.46;71.60;101327.63;5014995;28;45374;-77
2022/01/07 10:53:39;;;;;;;;;1.00;0.00;;;;;7.46;71.95;101321.47;4992597;28;45510;-77
2022/01/07 10:56:19;;;;;;;;;0.00;0.00;;;;;7.42;71.41;101320.41;4998520;28;47268;-76
2022/01/07 10:58:55;;;;;;;;;3.00;1.25;;;;;7.46;72.44;101327.63;4997889;28;48138;-77
2022/01/07 11:01:20;;;;;;;;;5.00;3.75;;;;;7.47;71.17;101332.06;5013784;28;46018;-76
2022/01/07 11:03:54;;;;;;;;;0.75;0.75;;;;;7.44;71.11;101316.13;4992245;28;45337;-76
2022/01/07 11:06:21;;;;;;;;;1.00;1.00;;;;;7.25;71.06;101269.69;4997972;28;45302;-78
2022/01/07 11:08:52;;;;;;;;;0.00;0.00;;;;;7.52;71.49;101327.91;4992515;28;47638;-77
2022/01/07 11:11:20;;;;;;;;;1.00;0.00;;;;;7.33;70.70;101289.34;4999165;28;45333;-76
2022/01/07 11:13:45;;;;;;;;;1.75;1.00;;;;;7.58;70.71;101317.66;4993473;28;45344;-76
2022/01/07 11:16:11;;;;;;;;;2.50;1.00;;;;;7.61;70.52;101311.63;4998243;28;45379;-76
2022/01/07 11:18:38;;;;;;;;;1.00;1.00;;;;;7.42;70.70;101273.06;4992869;28;45350;-76
2022/01/07 11:21:05;;;;;;;;;0.00;0.00;;;;;7.52;71.07;101292.81;5009311;28;45501;-76
2022/01/07 11:23:32;;;;;;;;;0.00;0.00;;;;;7.50;71.15;101282.22;4988679;28;45317;-76
2022/01/07 11:26:04;;;;;;;;;1.00;1.00;;;;;7.62;70.69;101292.41;4995943;28;45618;-76
2022/01/07 11:28:30;;;;;;;;;1.25;1.00;;;;;7.70;70.47;101306.81;4989702;28;47215;-77
2022/01/07 11:31:15;;;;;;;;;1.00;1.00;;;;;7.73;70.82;101316.53;4996314;28;45238;-77
2022/01/07 11:33:41;;;;;;;;;1.00;1.00;;;;;7.79;70.51;101316.81;4993651;28;45388;-76